createdAt,value
2018-11-28T00:00:09.759Z,1.93
2018-11-28T00:02:38.068Z,1.97
2018-11-28T00:05:09.416Z,2.05
2018-11-28T00:07:37.805Z,1.96
2018-11-28T00:10:09.155Z,1.97
2018-11-28T00:12:37.967Z,1.92
2018-11-28T00:15:07.260Z,1.91
2018-11-28T00:17:35.992Z,2.11
2018-11-28T00:20:04.512Z,2.05
2018-11-28T00:22:32.665Z,2.01
2018-11-28T00:25:00.815Z,2.03
2018-11-28T00:27:28.934Z,2.04
2018-11-28T00:29:57.080Z,2.01
2018-11-28T00:32:25.372Z,1.69
2018-11-28T00:34:53.532Z,1.75
2018-11-28T00:37:21.827Z,1.94
2018-11-28T00:39:50.014Z,2.00
2018-11-28T00:42:18.194Z,1.96
2018-11-28T00:44:46.431Z,1.96
2018-11-28T00:47:14.547Z,2.00
2018-11-28T00:49:42.721Z,1.82
2018-11-28T00:52:10.924Z,1.71
2018-11-28T00:54:39.106Z,1.90
2018-11-28T00:57:07.195Z,1.78
2018-11-28T00:59:35.342Z,1.83
2018-11-28T01:02:04.016Z,1.94
2018-11-28T01:04:32.112Z,1.84
2018-11-28T01:07:02.511Z,1.79
2018-11-28T01:09:30.764Z,1.81
2018-11-28T01:11:58.913Z,1.91
2018-11-28T01:14:27.095Z,1.96
2018-11-28T01:16:55.291Z,1.96
2018-11-28T01:19:23.443Z,2.01
2018-11-28T01:21:51.639Z,1.91
2018-11-28T01:24:19.887Z,1.96
2018-11-28T01:26:48.103Z,1.87
2018-11-28T01:29:16.304Z,1.93
2018-11-28T01:31:44.453Z,1.93
2018-11-28T01:34:12.610Z,1.95
2018-11-28T01:36:40.756Z,1.83
2018-11-28T01:39:08.923Z,1.87
2018-11-28T01:41:37.074Z,1.93
2018-11-28T01:44:05.777Z,1.88
2018-11-28T01:46:33.892Z,1.84
2018-11-28T01:49:02.023Z,1.83
2018-11-28T01:51:30.191Z,1.79
2018-11-28T01:53:58.315Z,1.54
2018-11-28T01:56:26.441Z,1.55
2018-11-28T01:58:54.629Z,1.35
2018-11-28T02:01:22.810Z,1.59
2018-11-28T02:03:51.008Z,1.58
2018-11-28T02:06:19.215Z,1.65
2018-11-28T02:08:47.345Z,1.59
2018-11-28T02:11:15.504Z,1.68
2018-11-28T02:13:43.624Z,1.44
2018-11-28T02:16:11.743Z,1.63
2018-11-28T02:18:39.975Z,1.65
2018-11-28T02:21:08.143Z,1.77
2018-11-28T02:23:36.247Z,1.69
2018-11-28T02:26:04.387Z,1.74
2018-11-28T02:28:32.489Z,1.66
2018-11-28T02:31:00.817Z,1.73
2018-11-28T02:33:28.959Z,1.68
2018-11-28T02:35:57.325Z,1.70
2018-11-28T02:38:25.502Z,1.77
2018-11-28T02:40:53.775Z,1.64
2018-11-28T02:43:21.967Z,1.63
2018-11-28T02:46:01.465Z,1.55
2018-11-28T02:48:29.577Z,1.69
2018-11-28T02:50:57.753Z,1.37
2018-11-28T02:53:25.903Z,1.28
2018-11-28T02:55:54.039Z,1.36
2018-11-28T02:58:28.927Z,1.16
2018-11-28T03:00:57.034Z,1.16
2018-11-28T03:03:25.176Z,0.93
2018-11-28T03:05:53.434Z,0.89
2018-11-28T03:08:21.693Z,0.70
2018-11-28T03:10:49.874Z,0.73
2018-11-28T03:13:18.009Z,0.66
2018-11-28T03:15:48.991Z,0.63
2018-11-28T03:18:17.787Z,0.62
2018-11-28T03:20:45.923Z,0.61
2018-11-28T03:23:14.091Z,0.59
2018-11-28T03:25:42.176Z,0.58
2018-11-28T03:28:10.355Z,0.46
2018-11-28T03:30:38.425Z,0.53
2018-11-28T03:33:06.557Z,0.58
2018-11-28T03:35:34.679Z,0.45
2018-11-28T03:38:02.981Z,0.46
2018-11-28T03:40:31.192Z,0.47
2018-11-28T03:42:59.388Z,0.42
2018-11-28T03:45:27.479Z,0.33
2018-11-28T03:47:55.710Z,0.39
2018-11-28T03:50:23.842Z,0.45
2018-11-28T03:52:52.019Z,0.51
2018-11-28T03:55:20.274Z,0.49
2018-11-28T03:57:48.648Z,0.34
2018-11-28T04:00:19.926Z,0.39
2018-11-28T04:02:48.452Z,0.30
2018-11-28T04:05:16.617Z,0.11
2018-11-28T04:07:44.735Z,0.12
2018-11-28T04:10:13.891Z,0.02
2018-11-28T04:12:42.751Z,0.01
2018-11-28T04:15:14.048Z,0.02
2018-11-28T04:17:42.246Z,0.03
2018-11-28T04:20:11.983Z,-0.18
2018-11-28T04:22:40.100Z,-0.28
2018-11-28T04:25:09.287Z,-0.31
2018-11-28T04:27:37.484Z,-0.26
2018-11-28T04:30:10.174Z,-0.16
2018-11-28T04:32:38.363Z,-0.29
2018-11-28T04:35:08.313Z,-0.28
2018-11-28T04:37:36.466Z,-0.34
2018-11-28T04:40:07.876Z,-0.40
2018-11-28T04:42:36.129Z,-0.53
2018-11-28T04:45:04.421Z,-0.55
2018-11-28T04:47:32.571Z,-0.47
2018-11-28T04:50:00.684Z,-0.52
2018-11-28T04:52:29.368Z,-0.55
2018-11-28T04:54:57.527Z,-0.54
2018-11-28T04:57:25.680Z,-0.47
2018-11-28T04:59:53.865Z,-0.65
2018-11-28T05:02:22.057Z,-0.71
2018-11-28T05:04:50.180Z,-0.70
2018-11-28T05:07:26.623Z,-0.65
2018-11-28T05:09:55.728Z,-0.76
2018-11-28T05:12:23.840Z,-0.71
2018-11-28T05:14:52.098Z,-0.83
2018-11-28T05:17:20.345Z,-0.82
2018-11-28T05:19:48.655Z,-0.79
2018-11-28T05:22:16.821Z,-0.82
2018-11-28T05:24:45.161Z,-0.81
2018-11-28T05:27:13.292Z,-0.82
2018-11-28T05:32:15.854Z,-0.77
2018-11-28T05:34:44.040Z,-0.88
2018-11-28T05:37:12.223Z,-0.77
2018-11-28T05:39:40.355Z,-0.67
2018-11-28T05:42:08.611Z,-0.78
2018-11-28T05:44:36.893Z,-0.86
2018-11-28T05:47:05.143Z,-0.86
2018-11-28T05:49:33.444Z,-0.98
2018-11-28T05:52:01.580Z,-1.03
2018-11-28T05:54:29.704Z,-0.96
2018-11-28T05:56:57.943Z,-1.04
2018-11-28T05:59:27.478Z,-1.02
2018-11-28T06:01:54.337Z,-1.13
2018-11-28T06:04:22.584Z,-1.25
2018-11-28T06:06:50.965Z,-1.12
2018-11-28T06:09:19.145Z,-1.18
2018-11-28T06:11:47.311Z,-1.20
2018-11-28T06:14:15.574Z,-1.07
2018-11-28T06:16:43.735Z,-1.16
2018-11-28T06:19:11.969Z,-1.12
2018-11-28T06:21:40.089Z,-1.27
2018-11-28T06:24:08.326Z,-1.07
2018-11-28T06:26:36.599Z,-1.16
2018-11-28T06:29:04.745Z,-1.11
2018-11-28T06:31:32.841Z,-1.25
2018-11-28T06:34:01.034Z,-1.26
2018-11-28T06:36:29.229Z,-1.32
2018-11-28T06:38:57.333Z,-1.23
2018-11-28T06:41:25.525Z,-1.23
2018-11-28T06:43:53.693Z,-1.21
2018-11-28T06:46:21.956Z,-1.34
2018-11-28T06:48:50.117Z,-1.22
2018-11-28T06:51:18.393Z,-1.16
2018-11-28T06:53:47.226Z,-1.18
2018-11-28T06:56:14.777Z,-1.30
2018-11-28T06:58:42.983Z,-1.24
2018-11-28T07:01:11.111Z,-1.16
2018-11-28T07:03:39.373Z,-1.10
2018-11-28T07:06:08.482Z,-1.16
2018-11-28T07:08:36.639Z,-1.08
2018-11-28T07:11:04.872Z,-1.10
2018-11-28T07:13:33.007Z,-1.03
2018-11-28T07:16:01.333Z,-1.09
2018-11-28T07:18:40.946Z,-1.06
2018-11-28T07:21:09.151Z,-1.11
2018-11-28T07:23:37.419Z,-1.07
2018-11-28T07:26:05.804Z,-1.02
2018-11-28T07:28:33.971Z,-0.96
2018-11-28T07:31:02.121Z,-0.90
2018-11-28T07:33:30.324Z,-0.94
2018-11-28T07:35:58.513Z,-1.00
2018-11-28T07:38:26.663Z,-1.08
2018-11-28T07:40:54.953Z,-0.98
2018-11-28T07:43:23.153Z,-1.03
2018-11-28T07:45:52.240Z,-1.03
2018-11-28T07:48:20.464Z,-0.98
2018-11-28T07:50:48.597Z,-0.82
2018-11-28T07:53:16.725Z,-0.94
2018-11-28T07:55:45.075Z,-0.81
2018-11-28T07:58:13.259Z,-0.78
2018-11-28T08:00:41.388Z,-0.74
2018-11-28T08:03:09.982Z,-0.67
2018-11-28T08:05:38.875Z,-0.65
2018-11-28T08:08:08.949Z,-0.66
2018-11-28T08:10:37.399Z,-0.46
2018-11-28T08:13:06.130Z,-0.30
2018-11-28T08:15:34.254Z,-0.25
2018-11-28T08:18:02.572Z,-0.31
2018-11-28T08:20:30.773Z,-0.21
2018-11-28T08:22:58.985Z,-0.19
2018-11-28T08:25:28.013Z,-0.07
2018-11-28T08:27:55.453Z,-0.01
2018-11-28T08:30:24.721Z,0.05
2018-11-28T08:32:53.439Z,-0.04
2018-11-28T08:35:21.593Z,0.02
2018-11-28T08:37:50.313Z,0.07
2018-11-28T08:40:23.459Z,0.20
2018-11-28T08:42:51.865Z,0.32
2018-11-28T08:45:21.017Z,0.37
2018-11-28T08:47:50.151Z,0.51
2018-11-28T08:50:23.623Z,0.52
2018-11-28T08:52:51.823Z,0.91
2018-11-28T08:55:19.952Z,1.00
2018-11-28T08:57:48.151Z,0.98
2018-11-28T09:00:17.366Z,1.00
2018-11-28T09:02:46.478Z,0.91
2018-11-28T09:05:14.999Z,1.00
2018-11-28T09:07:43.089Z,1.10
2018-11-28T09:10:13.123Z,1.07
2018-11-28T09:12:43.197Z,1.02
2018-11-28T09:15:13.772Z,1.12
2018-11-28T09:17:41.870Z,1.17
2018-11-28T09:20:12.192Z,1.10
2018-11-28T09:22:40.365Z,1.25
2018-11-28T09:25:10.971Z,1.29
2018-11-28T09:27:39.184Z,1.27
2018-11-28T09:30:12.811Z,1.36
2018-11-28T09:32:41.006Z,1.31
2018-11-28T09:35:10.084Z,1.41
2018-11-28T09:37:38.296Z,1.54
2018-11-28T09:40:11.716Z,1.57
2018-11-28T09:42:39.897Z,1.50
2018-11-28T09:45:09.949Z,1.50
2018-11-28T09:47:38.204Z,1.52
2018-11-28T09:50:12.208Z,1.62
2018-11-28T09:52:40.490Z,1.68
2018-11-28T09:55:11.218Z,1.71
2018-11-28T09:57:39.387Z,1.69
2018-11-28T10:00:11.784Z,1.66
2018-11-28T10:02:40.025Z,1.81
2018-11-28T10:05:12.077Z,1.81
2018-11-28T10:07:40.219Z,1.85
2018-11-28T10:10:10.249Z,1.87
2018-11-28T10:12:38.438Z,1.89
2018-11-28T10:15:17.658Z,1.87
2018-11-28T10:17:46.066Z,1.97
2018-11-28T10:20:14.908Z,1.97
2018-11-28T10:22:43.334Z,1.93
2018-11-28T10:25:14.868Z,1.89
2018-11-28T10:27:44.106Z,1.92
2018-11-28T10:30:17.927Z,2.01
2018-11-28T10:32:46.147Z,2.07
2018-11-28T10:35:14.313Z,2.13
2018-11-28T10:37:42.564Z,2.14
2018-11-28T10:40:13.254Z,2.19
2018-11-28T10:42:41.404Z,2.23
2018-11-28T10:45:11.188Z,2.21
2018-11-28T10:47:39.503Z,2.27
2018-11-28T10:50:10.753Z,2.25
2018-11-28T10:52:39.462Z,2.26
2018-11-28T10:55:13.211Z,2.38
2018-11-28T10:57:41.389Z,2.40
2018-11-28T11:00:15.333Z,2.38
2018-11-28T11:02:49.120Z,2.43
2018-11-28T11:05:23.616Z,2.45
2018-11-28T11:07:57.024Z,2.48
2018-11-28T11:10:30.653Z,2.48
2018-11-28T11:13:04.238Z,2.42
2018-11-28T11:15:32.380Z,2.50
2018-11-28T11:18:02.251Z,2.53
2018-11-28T11:20:28.787Z,2.57
2018-11-28T11:22:57.350Z,2.61
2018-11-28T11:25:25.479Z,2.69
2018-11-28T11:27:53.719Z,2.75
2018-11-28T11:30:21.867Z,2.72
2018-11-28T11:32:50.116Z,2.65
2018-11-28T11:35:18.227Z,2.79
2018-11-28T11:37:46.531Z,2.77
2018-11-28T11:40:15.041Z,2.72
2018-11-28T11:42:43.181Z,2.65
2018-11-28T11:45:14.582Z,2.72
2018-11-28T11:47:42.972Z,2.90
2018-11-28T11:50:14.181Z,2.83
2018-11-28T11:52:42.354Z,2.78
2018-11-28T11:55:14.883Z,2.84
2018-11-28T11:57:43.082Z,2.86
2018-11-28T12:00:16.845Z,2.94
2018-11-28T12:03:05.965Z,2.96
2018-11-28T12:05:34.071Z,2.90
2018-11-28T12:08:02.252Z,2.94
2018-11-28T12:10:30.338Z,3.01
2018-11-28T12:12:58.656Z,2.99
2018-11-28T12:15:26.880Z,3.03
2018-11-28T12:17:55.139Z,3.05
2018-11-28T12:20:26.185Z,2.99
2018-11-28T12:22:54.307Z,3.02
2018-11-28T12:25:22.561Z,3.01
2018-11-28T12:27:51.370Z,3.04
2018-11-28T12:30:19.644Z,3.12
2018-11-28T12:32:47.922Z,3.10
2018-11-28T12:35:17.405Z,3.18
2018-11-28T12:37:45.616Z,3.13
2018-11-28T12:40:14.804Z,3.12
2018-11-28T12:42:46.341Z,3.00
2018-11-28T12:45:15.436Z,3.01
2018-11-28T12:47:44.730Z,3.07
2018-11-28T12:50:15.295Z,3.08
2018-11-28T12:52:43.450Z,3.13
2018-11-28T12:55:11.607Z,3.13
2018-11-28T12:57:39.825Z,3.13
2018-11-28T13:00:11.191Z,3.06
2018-11-28T13:02:39.371Z,3.08
2018-11-28T13:05:09.926Z,3.08
2018-11-28T13:07:38.022Z,3.12
2018-11-28T13:10:11.718Z,3.21
2018-11-28T13:12:40.280Z,3.19
2018-11-28T13:15:10.605Z,3.19
2018-11-28T13:17:38.923Z,3.19
2018-11-28T13:20:08.656Z,3.16
2018-11-28T13:22:36.932Z,3.18
2018-11-28T13:25:06.041Z,3.15
2018-11-28T13:27:34.177Z,3.15
2018-11-28T13:30:02.746Z,3.15
2018-11-28T13:32:30.946Z,3.21
2018-11-28T13:34:59.125Z,3.14
2018-11-28T13:37:27.271Z,3.17
2018-11-28T13:39:55.474Z,3.14
2018-11-28T13:42:23.651Z,3.12
2018-11-28T13:44:51.939Z,3.05
2018-11-28T13:47:20.232Z,3.09
2018-11-28T13:49:48.377Z,3.10
2018-11-28T13:52:16.526Z,3.12
2018-11-28T13:55:38.580Z,3.11
2018-11-28T13:57:12.997Z,3.04
2018-11-28T13:59:42.425Z,3.04
2018-11-28T14:02:10.414Z,2.99
2018-11-28T14:04:38.577Z,2.87
2018-11-28T14:07:07.425Z,2.85
2018-11-28T14:09:35.587Z,2.77
2018-11-28T14:12:03.760Z,2.82
2018-11-28T14:14:31.880Z,2.80
2018-11-28T14:17:00.056Z,2.81
2018-11-28T14:19:28.256Z,2.76
2018-11-28T14:21:56.495Z,2.68
2018-11-28T14:24:24.665Z,2.70
2018-11-28T14:26:52.879Z,2.66
2018-11-28T14:29:21.006Z,2.63
2018-11-28T14:31:49.143Z,2.63
2018-11-28T14:34:17.298Z,2.62
2018-11-28T14:36:45.523Z,2.57
2018-11-28T14:39:13.689Z,2.54
2018-11-28T14:41:41.920Z,2.53
2018-11-28T14:44:10.147Z,2.49
2018-11-28T14:46:38.370Z,2.46
2018-11-28T14:49:06.595Z,2.37
2018-11-28T14:51:34.780Z,2.38
2018-11-28T14:54:02.923Z,2.36
2018-11-28T14:56:31.086Z,2.35
2018-11-28T14:58:59.252Z,2.28
2018-11-28T15:01:27.441Z,2.36
2018-11-28T15:03:55.661Z,2.33
2018-11-28T15:06:34.514Z,2.31
2018-11-28T15:09:07.957Z,2.25
2018-11-28T15:11:36.193Z,2.21
2018-11-28T15:14:04.354Z,2.08
2018-11-28T15:16:32.568Z,2.07
2018-11-28T15:19:00.672Z,2.08
2018-11-28T15:21:28.912Z,2.05
2018-11-28T15:23:57.075Z,2.01
2018-11-28T15:26:25.195Z,2.09
2018-11-28T15:28:53.367Z,2.00
2018-11-28T15:31:21.542Z,2.01
2018-11-28T15:33:49.802Z,1.98
2018-11-28T15:36:17.982Z,1.93
2018-11-28T15:38:46.135Z,1.87
2018-11-28T15:41:14.337Z,1.87
2018-11-28T15:43:42.534Z,1.95
2018-11-28T15:46:14.879Z,1.89
2018-11-28T15:48:39.015Z,1.83
2018-11-28T15:51:07.271Z,1.73
2018-11-28T15:53:35.464Z,1.59
2018-11-28T15:56:03.640Z,1.67
2018-11-28T15:58:31.792Z,1.58
2018-11-28T16:00:59.957Z,1.63
2018-11-28T16:03:28.104Z,1.61
2018-11-28T16:05:56.334Z,1.51
2018-11-28T16:08:24.484Z,1.55
2018-11-28T16:10:52.818Z,1.46
2018-11-28T16:13:20.994Z,1.44
2018-11-28T16:15:56.359Z,1.38
2018-11-28T16:18:24.503Z,1.44
2018-11-28T16:20:52.719Z,1.42
2018-11-28T16:23:20.870Z,1.42
2018-11-28T16:25:48.977Z,1.30
2018-11-28T16:28:17.260Z,1.45
2018-11-28T16:30:45.460Z,1.33
2018-11-28T16:33:13.634Z,1.27
2018-11-28T16:35:41.778Z,1.26
2018-11-28T16:38:09.954Z,1.23
2018-11-28T16:40:38.222Z,1.11
2018-11-28T16:43:06.614Z,1.05
2018-11-28T16:45:35.088Z,1.12
2018-11-28T16:48:03.682Z,1.17
2018-11-28T16:50:31.946Z,1.07
2018-11-28T16:53:00.126Z,1.03
2018-11-28T16:55:28.341Z,1.04
2018-11-28T16:57:56.513Z,1.00
2018-11-28T17:00:26.995Z,0.92
2018-11-28T17:02:55.813Z,0.98
2018-11-28T17:05:24.119Z,0.79
2018-11-28T17:07:52.879Z,0.83
2018-11-28T17:10:22.397Z,0.85
2018-11-28T17:12:51.051Z,0.80
2018-11-28T17:15:19.788Z,0.76
2018-11-28T17:17:47.950Z,0.85
2018-11-28T17:20:21.110Z,0.90
2018-11-28T17:22:50.206Z,0.77
2018-11-28T17:25:24.602Z,0.77
2018-11-28T17:27:52.892Z,0.73
2018-11-28T17:30:22.483Z,0.62
2018-11-28T17:32:50.684Z,0.59
2018-11-28T17:35:18.904Z,0.58
2018-11-28T17:37:47.215Z,0.65
2018-11-28T17:40:17.226Z,0.67
2018-11-28T17:42:47.547Z,0.74
2018-11-28T17:45:16.751Z,0.74
2018-11-28T17:47:44.955Z,0.62
2018-11-28T17:50:15.503Z,0.56
2018-11-28T17:52:45.772Z,0.55
2018-11-28T17:55:15.490Z,0.54
2018-11-28T17:57:43.734Z,0.49
2018-11-28T18:00:13.205Z,0.51
2018-11-28T18:02:41.663Z,0.56
2018-11-28T18:05:10.785Z,0.58
2018-11-28T18:07:39.054Z,0.51
2018-11-28T18:10:22.649Z,0.49
2018-11-28T18:13:06.666Z,0.49
2018-11-28T18:15:34.916Z,0.52
2018-11-28T18:18:03.249Z,0.59
2018-11-28T18:20:31.476Z,0.45
2018-11-28T18:22:59.750Z,0.47
2018-11-28T18:25:29.558Z,0.51
2018-11-28T18:27:58.638Z,0.49
2018-11-28T18:30:26.926Z,0.52
2018-11-28T18:32:55.096Z,0.49
2018-11-28T18:35:23.314Z,0.45
2018-11-28T18:37:52.163Z,0.41
2018-11-28T18:40:20.397Z,0.48
2018-11-28T18:42:48.684Z,0.50
2018-11-28T18:45:22.417Z,0.45
2018-11-28T18:47:50.562Z,0.52
2018-11-28T18:50:18.826Z,0.50
2018-11-28T18:52:47.004Z,0.52
2018-11-28T18:55:16.977Z,0.56
2018-11-28T18:57:44.938Z,0.47
2018-11-28T19:00:21.422Z,0.46
2018-11-28T19:02:49.718Z,0.42
2018-11-28T19:05:18.003Z,0.41
2018-11-28T19:07:47.280Z,0.46
2018-11-28T19:10:16.641Z,0.40
2018-11-28T19:12:44.916Z,0.40
2018-11-28T19:15:15.435Z,0.35
2018-11-28T19:17:44.188Z,0.33
2018-11-28T19:20:19.893Z,0.34
2018-11-28T19:22:48.619Z,0.36
2018-11-28T19:25:17.886Z,0.37
2018-11-28T19:27:46.475Z,0.30
2018-11-28T19:30:17.219Z,0.31
2018-11-28T19:32:45.646Z,0.28
2018-11-28T19:35:13.902Z,0.29
2018-11-28T19:37:42.800Z,0.32
2018-11-28T19:40:13.559Z,0.26
2018-11-28T19:42:48.450Z,0.25
2018-11-28T19:45:16.773Z,0.27
2018-11-28T19:47:45.023Z,0.23
2018-11-28T19:50:17.506Z,0.28
2018-11-28T19:52:45.727Z,0.21
2018-11-28T19:55:14.014Z,0.23
2018-11-28T19:57:42.295Z,0.20
2018-11-28T20:00:16.019Z,0.17
2018-11-28T20:02:44.976Z,0.18
2018-11-28T20:05:13.283Z,0.14
2018-11-28T20:07:44.436Z,0.12
2018-11-28T20:12:39.701Z,0.11
2018-11-28T20:15:12.872Z,0.11
2018-11-28T20:17:42.218Z,0.10
2018-11-28T20:20:12.340Z,0.14
2018-11-28T20:22:42.271Z,0.23
2018-11-28T20:27:37.506Z,0.10
2018-11-28T20:30:13.196Z,0.05
2018-11-28T20:32:41.514Z,0.06
2018-11-28T20:35:11.726Z,-0.03
2018-11-28T20:37:40.654Z,-0.01
2018-11-28T20:40:14.638Z,-0.03
2018-11-28T20:42:45.416Z,0.02
2018-11-28T20:45:13.902Z,0.10
2018-11-28T20:47:43.103Z,0.06
2018-11-28T20:52:42.481Z,-0.05
2018-11-28T20:55:11.285Z,-0.06
2018-11-28T20:57:39.567Z,-0.12
2018-11-28T21:00:12.408Z,-0.02
2018-11-28T21:02:41.220Z,-0.01
2018-11-28T21:05:10.137Z,0.01
2018-11-28T21:07:38.377Z,-0.06
2018-11-28T21:10:14.789Z,-0.02
2018-11-28T21:12:43.042Z,-0.09
2018-11-28T21:15:12.471Z,-0.12
2018-11-28T21:17:40.773Z,-0.01
2018-11-28T21:20:13.668Z,-0.13
2018-11-28T21:22:42.223Z,-0.05
2018-11-28T21:25:11.861Z,-0.09
2018-11-28T21:27:40.186Z,-0.06
2018-11-28T21:30:16.689Z,-0.17
2018-11-28T21:32:45.162Z,-0.18
2018-11-28T21:35:15.656Z,-0.14
2018-11-28T21:37:43.938Z,-0.11
2018-11-28T21:40:12.582Z,-0.17
2018-11-28T21:42:40.928Z,-0.18
2018-11-28T21:45:14.602Z,-0.16
2018-11-28T21:47:43.426Z,-0.19
2018-11-28T21:50:13.699Z,-0.15
2018-11-28T21:52:42.132Z,-0.16
2018-11-28T21:55:16.081Z,-0.14
2018-11-28T21:57:44.463Z,-0.14
2018-11-28T22:00:16.907Z,-0.14
2018-11-28T22:02:45.133Z,-0.14
2018-11-28T22:05:14.175Z,-0.16
2018-11-28T22:07:42.365Z,-0.22
2018-11-28T22:10:15.731Z,-0.17
2018-11-28T22:12:43.949Z,-0.16
2018-11-28T22:15:13.119Z,-0.19
2018-11-28T22:17:43.612Z,-0.18
2018-11-28T22:20:12.579Z,-0.29
2018-11-28T22:22:40.769Z,-0.23
2018-11-28T22:25:18.745Z,-0.24
2018-11-28T22:27:47.073Z,-0.23
2018-11-28T22:30:16.392Z,-0.24
2018-11-28T22:32:44.621Z,-0.24
2018-11-28T22:35:12.873Z,-0.30
2018-11-28T22:37:41.047Z,-0.36
2018-11-28T22:40:15.607Z,-0.41
2018-11-28T22:42:43.743Z,-0.43
2018-11-28T22:45:15.267Z,-0.43
2018-11-28T22:47:43.453Z,-0.44
2018-11-28T22:50:12.649Z,-0.37
2018-11-28T22:52:40.879Z,-0.40
2018-11-28T22:55:12.057Z,-0.34
2018-11-28T22:57:40.209Z,-0.43
2018-11-28T23:00:11.307Z,-0.44
2018-11-28T23:02:58.147Z,-0.49
2018-11-28T23:05:28.227Z,-0.53
2018-11-28T23:07:57.388Z,-0.55
2018-11-28T23:10:25.712Z,-0.66
2018-11-28T23:12:53.860Z,-0.62
2018-11-28T23:15:22.034Z,-0.51
2018-11-28T23:17:54.872Z,-0.59
2018-11-28T23:20:18.413Z,-0.57
2018-11-28T23:22:46.557Z,-0.61
2018-11-28T23:25:14.770Z,-0.61
2018-11-28T23:27:42.990Z,-0.75
2018-11-28T23:30:12.675Z,-0.80
2018-11-28T23:32:40.923Z,-0.74
2018-11-28T23:35:10.158Z,-0.70
2018-11-28T23:37:38.732Z,-0.74
2018-11-28T23:40:09.795Z,-0.83
2018-11-28T23:42:38.051Z,-0.76
2018-11-28T23:45:07.891Z,-0.65
2018-11-28T23:47:36.047Z,-0.70
2018-11-28T23:50:04.746Z,-0.86
2018-11-28T23:52:33.030Z,-0.76
2018-11-28T23:55:01.190Z,-0.75
2018-11-28T23:57:29.359Z,-0.74
2018-11-28T23:59:57.494Z,-0.75
